sensor_id;sensor_type;location;lat;lon;timestamp;temperature;humidity
2162;DHT22;1087;50.226;8.682;2022-12-11T00:02:17;2.00;99.90
2162;DHT22;1087;50.226;8.682;2022-12-11T00:04:43;2.10;99.90
2162;DHT22;1087;50.226;8.682;2022-12-11T00:07:08;2.00;99.90
2162;DHT22;1087;50.226;8.682;2022-12-11T00:09:34;2.00;99.90
2162;DHT22;1087;50.226;8.682;2022-12-11T00:12:00;2.00;99.90
2162;DHT22;1087;50.226;8.682;2022-12-11T00:14:27;2.00;99.90
2162;DHT22;1087;50.226;8.682;2022-12-11T00:16:53;2.00;99.90
2162;DHT22;1087;50.226;8.682;2022-12-11T00:19:19;2.00;99.90
2162;DHT22;1087;50.226;8.682;2022-12-11T00:21:45;2.00;99.90
2162;DHT22;1087;50.226;8.682;2022-12-11T00:24:10;2.10;99.90
2162;DHT22;1087;50.226;8.682;2022-12-11T00:26:37;2.00;99.90
2162;DHT22;1087;50.226;8.682;2022-12-11T00:29:02;2.00;99.90
2162;DHT22;1087;50.226;8.682;2022-12-11T00:31:28;2.00;99.90
2162;DHT22;1087;50.226;8.682;2022-12-11T00:33:54;2.00;99.90
2162;DHT22;1087;50.226;8.682;2022-12-11T00:36:25;2.10;99.90
2162;DHT22;1087;50.226;8.682;2022-12-11T00:38:51;2.00;99.90
2162;DHT22;1087;50.226;8.682;2022-12-11T00:41:17;2.00;99.90
2162;DHT22;1087;50.226;8.682;2022-12-11T00:43:43;2.10;99.90
2162;DHT22;1087;50.226;8.682;2022-12-11T00:46:09;2.00;99.90
2162;DHT22;1087;50.226;8.682;2022-12-11T00:48:35;2.00;99.90
2162;DHT22;1087;50.226;8.682;2022-12-11T00:51:01;2.00;99.90
2162;DHT22;1087;50.226;8.682;2022-12-11T00:53:27;2.00;99.90
2162;DHT22;1087;50.226;8.682;2022-12-11T00:55:52;2.00;99.90
2162;DHT22;1087;50.226;8.682;2022-12-11T00:58:18;2.00;99.90
2162;DHT22;1087;50.226;8.682;2022-12-11T01:00:44;2.00;99.90
2162;DHT22;1087;50.226;8.682;2022-12-11T01:03:12;2.00;99.90
2162;DHT22;1087;50.226;8.682;2022-12-11T01:05:38;2.00;99.90
2162;DHT22;1087;50.226;8.682;2022-12-11T01:08:03;1.90;99.90
2162;DHT22;1087;50.226;8.682;2022-12-11T01:10:29;1.90;99.90
2162;DHT22;1087;50.226;8.682;2022-12-11T01:13:04;1.90;99.90
2162;DHT22;1087;50.226;8.682;2022-12-11T01:15:38;1.90;99.90
2162;DHT22;1087;50.226;8.682;2022-12-11T01:18:04;2.00;99.90
2162;DHT22;1087;50.226;8.682;2022-12-11T01:20:29;2.00;99.90
2162;DHT22;1087;50.226;8.682;2022-12-11T01:22:57;2.00;99.90
2162;DHT22;1087;50.226;8.682;2022-12-11T01:25:24;1.90;99.90
2162;DHT22;1087;50.226;8.682;2022-12-11T01:27:51;1.90;99.90
2162;DHT22;1087;50.226;8.682;2022-12-11T01:30:18;1.90;99.90
2162;DHT22;1087;50.226;8.682;2022-12-11T01:32:44;2.00;99.90
2162;DHT22;1087;50.226;8.682;2022-12-11T01:35:10;2.00;99.90
2162;DHT22;1087;50.226;8.682;2022-12-11T01:37:36;2.00;99.90
2162;DHT22;1087;50.226;8.682;2022-12-11T01:40:04;2.00;99.90
2162;DHT22;1087;50.226;8.682;2022-12-11T01:42:29;2.10;99.90
2162;DHT22;1087;50.226;8.682;2022-12-11T01:45:26;2.10;99.90
2162;DHT22;1087;50.226;8.682;2022-12-11T01:48:04;2.10;99.90
2162;DHT22;1087;50.226;8.682;2022-12-11T01:50:31;2.10;99.90
2162;DHT22;1087;50.226;8.682;2022-12-11T01:52:58;2.20;99.90
2162;DHT22;1087;50.226;8.682;2022-12-11T01:55:24;2.10;99.90
2162;DHT22;1087;50.226;8.682;2022-12-11T01:57:50;2.20;99.90
2162;DHT22;1087;50.226;8.682;2022-12-11T02:00:17;2.10;99.90
2162;DHT22;1087;50.226;8.682;2022-12-11T02:02:43;2.10;99.90
2162;DHT22;1087;50.226;8.682;2022-12-11T02:05:08;2.10;99.90
2162;DHT22;1087;50.226;8.682;2022-12-11T02:07:45;2.10;99.90
2162;DHT22;1087;50.226;8.682;2022-12-11T02:10:12;2.20;99.90
2162;DHT22;1087;50.226;8.682;2022-12-11T02:13:03;2.10;99.90
2162;DHT22;1087;50.226;8.682;2022-12-11T02:15:38;2.20;99.90
2162;DHT22;1087;50.226;8.682;2022-12-11T02:18:08;2.20;99.90
2162;DHT22;1087;50.226;8.682;2022-12-11T02:20:46;2.10;99.90
2162;DHT22;1087;50.226;8.682;2022-12-11T02:26:30;2.10;99.90
2162;DHT22;1087;50.226;8.682;2022-12-11T02:29:06;2.20;99.90
2162;DHT22;1087;50.226;8.682;2022-12-11T02:34:41;2.10;99.90
2162;DHT22;1087;50.226;8.682;2022-12-11T02:37:13;2.20;99.90
2162;DHT22;1087;50.226;8.682;2022-12-11T02:39:41;2.10;99.90
2162;DHT22;1087;50.226;8.682;2022-12-11T02:42:08;2.20;99.90
2162;DHT22;1087;50.226;8.682;2022-12-11T02:44:35;2.10;99.90
2162;DHT22;1087;50.226;8.682;2022-12-11T02:47:03;2.20;99.90
2162;DHT22;1087;50.226;8.682;2022-12-11T02:49:30;2.10;99.90
2162;DHT22;1087;50.226;8.682;2022-12-11T02:51:58;2.10;99.90
2162;DHT22;1087;50.226;8.682;2022-12-11T02:54:29;2.20;99.90
2162;DHT22;1087;50.226;8.682;2022-12-11T02:57:07;2.10;99.90
2162;DHT22;1087;50.226;8.682;2022-12-11T02:59:41;2.00;99.90
2162;DHT22;1087;50.226;8.682;2022-12-11T03:02:08;2.00;99.90
2162;DHT22;1087;50.226;8.682;2022-12-11T03:04:35;2.10;99.90
2162;DHT22;1087;50.226;8.682;2022-12-11T03:07:09;2.20;99.90
2162;DHT22;1087;50.226;8.682;2022-12-11T03:09:43;2.20;99.90
2162;DHT22;1087;50.226;8.682;2022-12-11T03:12:11;2.20;99.90
2162;DHT22;1087;50.226;8.682;2022-12-11T03:14:38;2.10;99.90
2162;DHT22;1087;50.226;8.682;2022-12-11T03:17:15;2.10;99.90
2162;DHT22;1087;50.226;8.682;2022-12-11T03:25:20;2.00;99.90
2162;DHT22;1087;50.226;8.682;2022-12-11T03:27:55;1.90;99.90
2162;DHT22;1087;50.226;8.682;2022-12-11T03:30:23;2.00;99.90
2162;DHT22;1087;50.226;8.682;2022-12-11T03:32:53;2.00;99.90
2162;DHT22;1087;50.226;8.682;2022-12-11T03:35:30;2.00;99.90
2162;DHT22;1087;50.226;8.682;2022-12-11T03:38:01;2.00;99.90
2162;DHT22;1087;50.226;8.682;2022-12-11T03:40:30;2.00;99.90
2162;DHT22;1087;50.226;8.682;2022-12-11T03:42:56;2.00;99.90
2162;DHT22;1087;50.226;8.682;2022-12-11T03:45:24;2.10;99.90
2162;DHT22;1087;50.226;8.682;2022-12-11T03:47:51;2.10;99.90
2162;DHT22;1087;50.226;8.682;2022-12-11T03:50:19;2.10;99.90
2162;DHT22;1087;50.226;8.682;2022-12-11T03:52:47;2.00;99.90
2162;DHT22;1087;50.226;8.682;2022-12-11T03:55:15;2.00;99.90
2162;DHT22;1087;50.226;8.682;2022-12-11T03:57:41;1.90;99.90
2162;DHT22;1087;50.226;8.682;2022-12-11T04:00:09;2.00;99.90
2162;DHT22;1087;50.226;8.682;2022-12-11T04:02:35;2.00;99.90
2162;DHT22;1087;50.226;8.682;2022-12-11T04:05:01;1.90;99.90
2162;DHT22;1087;50.226;8.682;2022-12-11T04:07:27;2.00;99.90
2162;DHT22;1087;50.226;8.682;2022-12-11T04:09:53;2.00;99.90
2162;DHT22;1087;50.226;8.682;2022-12-11T04:12:18;2.00;99.90
2162;DHT22;1087;50.226;8.682;2022-12-11T04:14:44;1.90;99.90
2162;DHT22;1087;50.226;8.682;2022-12-11T04:17:29;1.90;99.90
2162;DHT22;1087;50.226;8.682;2022-12-11T04:20:14;1.80;99.90
2162;DHT22;1087;50.226;8.682;2022-12-11T04:22:58;1.80;99.90
2162;DHT22;1087;50.226;8.682;2022-12-11T04:25:42;1.80;99.90
2162;DHT22;1087;50.226;8.682;2022-12-11T04:28:08;1.80;99.90
2162;DHT22;1087;50.226;8.682;2022-12-11T04:30:33;1.80;99.90
2162;DHT22;1087;50.226;8.682;2022-12-11T04:32:59;1.80;99.90
2162;DHT22;1087;50.226;8.682;2022-12-11T04:35:24;1.80;99.90
2162;DHT22;1087;50.226;8.682;2022-12-11T04:37:51;1.80;99.90
2162;DHT22;1087;50.226;8.682;2022-12-11T04:40:18;1.80;99.90
2162;DHT22;1087;50.226;8.682;2022-12-11T04:42:43;1.80;99.90
2162;DHT22;1087;50.226;8.682;2022-12-11T04:45:09;1.80;99.90
2162;DHT22;1087;50.226;8.682;2022-12-11T04:47:36;1.80;99.90
2162;DHT22;1087;50.226;8.682;2022-12-11T04:50:03;1.80;99.90
2162;DHT22;1087;50.226;8.682;2022-12-11T04:52:29;1.70;99.90
2162;DHT22;1087;50.226;8.682;2022-12-11T04:54:55;1.80;99.90
2162;DHT22;1087;50.226;8.682;2022-12-11T04:57:20;1.70;99.90
2162;DHT22;1087;50.226;8.682;2022-12-11T04:59:46;1.60;99.90
2162;DHT22;1087;50.226;8.682;2022-12-11T05:02:12;1.70;99.90
2162;DHT22;1087;50.226;8.682;2022-12-11T05:04:38;1.70;99.90
2162;DHT22;1087;50.226;8.682;2022-12-11T05:07:03;1.70;99.90
2162;DHT22;1087;50.226;8.682;2022-12-11T05:09:29;1.80;99.90
2162;DHT22;1087;50.226;8.682;2022-12-11T05:11:55;1.90;99.90
2162;DHT22;1087;50.226;8.682;2022-12-11T05:14:20;1.90;99.90
2162;DHT22;1087;50.226;8.682;2022-12-11T05:16:47;1.80;99.90
2162;DHT22;1087;50.226;8.682;2022-12-11T05:19:12;1.80;99.90
2162;DHT22;1087;50.226;8.682;2022-12-11T05:21:38;1.80;99.90
2162;DHT22;1087;50.226;8.682;2022-12-11T05:24:04;1.90;99.90
2162;DHT22;1087;50.226;8.682;2022-12-11T05:26:30;1.70;99.90
2162;DHT22;1087;50.226;8.682;2022-12-11T05:28:55;1.80;99.90
2162;DHT22;1087;50.226;8.682;2022-12-11T05:31:23;1.80;99.90
2162;DHT22;1087;50.226;8.682;2022-12-11T05:33:50;1.90;99.90
2162;DHT22;1087;50.226;8.682;2022-12-11T05:36:21;1.90;99.90
2162;DHT22;1087;50.226;8.682;2022-12-11T05:38:47;2.00;99.90
2162;DHT22;1087;50.226;8.682;2022-12-11T05:41:15;2.00;99.90
2162;DHT22;1087;50.226;8.682;2022-12-11T05:43:41;2.00;99.90
2162;DHT22;1087;50.226;8.682;2022-12-11T05:46:16;2.00;99.90
2162;DHT22;1087;50.226;8.682;2022-12-11T05:48:43;2.00;99.90
2162;DHT22;1087;50.226;8.682;2022-12-11T05:51:09;2.10;99.90
2162;DHT22;1087;50.226;8.682;2022-12-11T05:53:37;2.10;99.90
2162;DHT22;1087;50.226;8.682;2022-12-11T05:56:05;2.00;99.90
2162;DHT22;1087;50.226;8.682;2022-12-11T05:58:31;2.00;99.90
2162;DHT22;1087;50.226;8.682;2022-12-11T06:00:57;2.00;99.90
2162;DHT22;1087;50.226;8.682;2022-12-11T06:03:23;1.90;99.90
2162;DHT22;1087;50.226;8.682;2022-12-11T06:05:48;1.80;99.90
2162;DHT22;1087;50.226;8.682;2022-12-11T06:08:14;2.00;99.90
2162;DHT22;1087;50.226;8.682;2022-12-11T06:10:46;2.00;99.90
2162;DHT22;1087;50.226;8.682;2022-12-11T06:13:12;2.10;99.90
2162;DHT22;1087;50.226;8.682;2022-12-11T06:15:38;2.00;99.90
2162;DHT22;1087;50.226;8.682;2022-12-11T06:18:04;2.10;99.90
2162;DHT22;1087;50.226;8.682;2022-12-11T06:20:33;2.10;99.90
2162;DHT22;1087;50.226;8.682;2022-12-11T06:22:59;2.10;99.90
2162;DHT22;1087;50.226;8.682;2022-12-11T06:25:25;2.10;99.90
2162;DHT22;1087;50.226;8.682;2022-12-11T06:27:51;2.10;99.90
2162;DHT22;1087;50.226;8.682;2022-12-11T06:30:16;2.10;99.90
2162;DHT22;1087;50.226;8.682;2022-12-11T06:32:42;2.10;99.90
2162;DHT22;1087;50.226;8.682;2022-12-11T06:35:08;2.10;99.90
2162;DHT22;1087;50.226;8.682;2022-12-11T06:37:35;2.00;99.90
2162;DHT22;1087;50.226;8.682;2022-12-11T06:40:02;2.10;99.90
2162;DHT22;1087;50.226;8.682;2022-12-11T06:42:31;2.00;99.90
2162;DHT22;1087;50.226;8.682;2022-12-11T06:44:57;2.00;99.90
2162;DHT22;1087;50.226;8.682;2022-12-11T06:47:25;2.10;99.90
2162;DHT22;1087;50.226;8.682;2022-12-11T06:49:51;2.10;99.90
2162;DHT22;1087;50.226;8.682;2022-12-11T06:52:17;2.00;99.90
2162;DHT22;1087;50.226;8.682;2022-12-11T06:54:42;2.00;99.90
2162;DHT22;1087;50.226;8.682;2022-12-11T06:57:08;2.10;99.90
2162;DHT22;1087;50.226;8.682;2022-12-11T06:59:34;2.10;99.90
2162;DHT22;1087;50.226;8.682;2022-12-11T07:01:59;2.10;99.90
2162;DHT22;1087;50.226;8.682;2022-12-11T07:04:24;2.00;99.90
2162;DHT22;1087;50.226;8.682;2022-12-11T07:06:52;2.10;99.90
2162;DHT22;1087;50.226;8.682;2022-12-11T07:09:18;2.00;99.90
2162;DHT22;1087;50.226;8.682;2022-12-11T07:11:43;2.10;99.90
2162;DHT22;1087;50.226;8.682;2022-12-11T07:14:09;2.00;99.90
2162;DHT22;1087;50.226;8.682;2022-12-11T07:16:34;2.10;99.90
2162;DHT22;1087;50.226;8.682;2022-12-11T07:19:00;2.10;99.90
2162;DHT22;1087;50.226;8.682;2022-12-11T07:21:25;2.10;99.90
2162;DHT22;1087;50.226;8.682;2022-12-11T07:23:51;2.10;99.90
2162;DHT22;1087;50.226;8.682;2022-12-11T07:26:19;2.10;99.90
2162;DHT22;1087;50.226;8.682;2022-12-11T07:28:45;2.10;99.90
2162;DHT22;1087;50.226;8.682;2022-12-11T07:31:14;2.00;99.90
2162;DHT22;1087;50.226;8.682;2022-12-11T07:33:40;2.10;99.90
2162;DHT22;1087;50.226;8.682;2022-12-11T07:36:08;2.10;99.90
2162;DHT22;1087;50.226;8.682;2022-12-11T07:38:34;2.10;99.90
2162;DHT22;1087;50.226;8.682;2022-12-11T07:41:04;2.10;99.90
2162;DHT22;1087;50.226;8.682;2022-12-11T07:43:30;2.20;99.90
2162;DHT22;1087;50.226;8.682;2022-12-11T07:46:07;2.00;99.90
2162;DHT22;1087;50.226;8.682;2022-12-11T07:48:36;2.10;99.90
2162;DHT22;1087;50.226;8.682;2022-12-11T07:51:18;2.10;99.90
2162;DHT22;1087;50.226;8.682;2022-12-11T07:53:45;2.20;99.90
2162;DHT22;1087;50.226;8.682;2022-12-11T07:56:11;2.10;99.90
2162;DHT22;1087;50.226;8.682;2022-12-11T07:58:37;2.10;99.90
2162;DHT22;1087;50.226;8.682;2022-12-11T08:01:04;2.10;99.90
2162;DHT22;1087;50.226;8.682;2022-12-11T08:03:30;2.10;99.90
2162;DHT22;1087;50.226;8.682;2022-12-11T08:05:55;2.10;99.90
2162;DHT22;1087;50.226;8.682;2022-12-11T08:08:21;2.10;99.90
2162;DHT22;1087;50.226;8.682;2022-12-11T08:10:46;2.10;99.90
2162;DHT22;1087;50.226;8.682;2022-12-11T08:13:12;2.10;99.90
2162;DHT22;1087;50.226;8.682;2022-12-11T08:15:37;2.10;99.90
2162;DHT22;1087;50.226;8.682;2022-12-11T08:18:04;2.10;99.90
2162;DHT22;1087;50.226;8.682;2022-12-11T08:20:30;2.10;99.90
2162;DHT22;1087;50.226;8.682;2022-12-11T08:22:56;2.10;99.90
2162;DHT22;1087;50.226;8.682;2022-12-11T08:25:22;2.10;99.90
2162;DHT22;1087;50.226;8.682;2022-12-11T08:27:48;2.20;99.90
2162;DHT22;1087;50.226;8.682;2022-12-11T08:30:13;2.20;99.90
2162;DHT22;1087;50.226;8.682;2022-12-11T08:32:39;2.10;99.90
2162;DHT22;1087;50.226;8.682;2022-12-11T08:35:05;2.10;99.90
2162;DHT22;1087;50.226;8.682;2022-12-11T08:37:33;2.10;99.90
2162;DHT22;1087;50.226;8.682;2022-12-11T08:39:58;2.10;99.90
2162;DHT22;1087;50.226;8.682;2022-12-11T08:42:24;2.20;99.90
2162;DHT22;1087;50.226;8.682;2022-12-11T08:44:49;2.20;99.90
2162;DHT22;1087;50.226;8.682;2022-12-11T08:47:16;2.20;99.90
2162;DHT22;1087;50.226;8.682;2022-12-11T08:49:41;2.30;99.90
2162;DHT22;1087;50.226;8.682;2022-12-11T08:52:07;2.20;99.90
2162;DHT22;1087;50.226;8.682;2022-12-11T08:54:33;2.20;99.90
2162;DHT22;1087;50.226;8.682;2022-12-11T08:56:58;2.10;99.90
2162;DHT22;1087;50.226;8.682;2022-12-11T08:59:24;2.20;99.90
2162;DHT22;1087;50.226;8.682;2022-12-11T09:01:50;2.30;99.90
2162;DHT22;1087;50.226;8.682;2022-12-11T09:04:16;2.30;99.90
2162;DHT22;1087;50.226;8.682;2022-12-11T09:06:41;2.30;99.90
2162;DHT22;1087;50.226;8.682;2022-12-11T09:09:07;2.20;99.90
2162;DHT22;1087;50.226;8.682;2022-12-11T09:11:34;2.20;99.90
2162;DHT22;1087;50.226;8.682;2022-12-11T09:14:01;2.20;99.90
2162;DHT22;1087;50.226;8.682;2022-12-11T09:16:27;2.20;99.90
2162;DHT22;1087;50.226;8.682;2022-12-11T09:18:55;2.30;99.90
2162;DHT22;1087;50.226;8.682;2022-12-11T09:21:23;2.30;99.90
2162;DHT22;1087;50.226;8.682;2022-12-11T09:23:51;2.30;99.90
2162;DHT22;1087;50.226;8.682;2022-12-11T09:26:17;2.30;99.90
2162;DHT22;1087;50.226;8.682;2022-12-11T09:28:44;2.20;99.90
2162;DHT22;1087;50.226;8.682;2022-12-11T09:31:12;2.20;99.90
2162;DHT22;1087;50.226;8.682;2022-12-11T09:33:38;2.20;99.90
2162;DHT22;1087;50.226;8.682;2022-12-11T09:36:05;2.30;99.90
2162;DHT22;1087;50.226;8.682;2022-12-11T09:38:31;2.30;99.90
2162;DHT22;1087;50.226;8.682;2022-12-11T09:40:58;2.20;99.90
2162;DHT22;1087;50.226;8.682;2022-12-11T09:43:38;2.20;99.90
2162;DHT22;1087;50.226;8.682;2022-12-11T09:46:09;2.20;99.90
2162;DHT22;1087;50.226;8.682;2022-12-11T09:48:36;2.20;99.90
2162;DHT22;1087;50.226;8.682;2022-12-11T09:51:11;2.30;99.90
2162;DHT22;1087;50.226;8.682;2022-12-11T09:53:38;2.20;99.90
2162;DHT22;1087;50.226;8.682;2022-12-11T09:56:21;2.20;99.90
2162;DHT22;1087;50.226;8.682;2022-12-11T10:01:40;2.30;99.90
2162;DHT22;1087;50.226;8.682;2022-12-11T10:07:10;2.40;99.90
2162;DHT22;1087;50.226;8.682;2022-12-11T10:10:18;2.40;99.90
2162;DHT22;1087;50.226;8.682;2022-12-11T10:13:07;2.40;99.90
2162;DHT22;1087;50.226;8.682;2022-12-11T10:16:00;2.30;99.90
2162;DHT22;1087;50.226;8.682;2022-12-11T10:18:28;2.20;99.90
2162;DHT22;1087;50.226;8.682;2022-12-11T10:20:55;2.10;99.90
2162;DHT22;1087;50.226;8.682;2022-12-11T10:23:28;2.00;99.90
2162;DHT22;1087;50.226;8.682;2022-12-11T10:26:10;2.10;99.90
2162;DHT22;1087;50.226;8.682;2022-12-11T10:28:36;2.00;99.90
2162;DHT22;1087;50.226;8.682;2022-12-11T10:31:18;2.10;99.90
2162;DHT22;1087;50.226;8.682;2022-12-11T10:33:58;2.10;99.90
2162;DHT22;1087;50.226;8.682;2022-12-11T10:36:28;2.10;99.90
2162;DHT22;1087;50.226;8.682;2022-12-11T10:38:54;2.00;99.90
2162;DHT22;1087;50.226;8.682;2022-12-11T10:41:22;2.10;99.90
2162;DHT22;1087;50.226;8.682;2022-12-11T10:43:51;2.10;99.90
2162;DHT22;1087;50.226;8.682;2022-12-11T10:46:26;2.10;99.90
2162;DHT22;1087;50.226;8.682;2022-12-11T10:49:00;2.20;99.90
2162;DHT22;1087;50.226;8.682;2022-12-11T10:53:58;2.20;99.90
2162;DHT22;1087;50.226;8.682;2022-12-11T10:56:28;2.20;99.90
2162;DHT22;1087;50.226;8.682;2022-12-11T10:58:55;2.20;99.90
2162;DHT22;1087;50.226;8.682;2022-12-11T11:01:26;2.30;99.90
2162;DHT22;1087;50.226;8.682;2022-12-11T11:04:14;2.40;99.90
2162;DHT22;1087;50.226;8.682;2022-12-11T11:06:40;2.40;99.90
2162;DHT22;1087;50.226;8.682;2022-12-11T11:09:27;2.30;99.90
2162;DHT22;1087;50.226;8.682;2022-12-11T11:11:53;2.30;99.90
2162;DHT22;1087;50.226;8.682;2022-12-11T11:14:20;2.40;99.90
2162;DHT22;1087;50.226;8.682;2022-12-11T11:16:48;2.30;99.90
2162;DHT22;1087;50.226;8.682;2022-12-11T11:19:22;2.40;99.90
2162;DHT22;1087;50.226;8.682;2022-12-11T11:21:57;2.40;99.90
2162;DHT22;1087;50.226;8.682;2022-12-11T11:24:33;2.50;99.90
2162;DHT22;1087;50.226;8.682;2022-12-11T11:27:00;2.50;99.90
2162;DHT22;1087;50.226;8.682;2022-12-11T11:29:31;2.50;99.90
2162;DHT22;1087;50.226;8.682;2022-12-11T11:32:14;2.50;99.90
2162;DHT22;1087;50.226;8.682;2022-12-11T11:34:41;2.50;99.90
2162;DHT22;1087;50.226;8.682;2022-12-11T11:37:31;2.50;99.90
2162;DHT22;1087;50.226;8.682;2022-12-11T11:40:05;2.60;99.90
2162;DHT22;1087;50.226;8.682;2022-12-11T11:42:49;2.60;99.90
2162;DHT22;1087;50.226;8.682;2022-12-11T11:45:25;2.60;99.90
2162;DHT22;1087;50.226;8.682;2022-12-11T11:48:05;2.50;99.90
2162;DHT22;1087;50.226;8.682;2022-12-11T11:50:35;2.60;99.90
2162;DHT22;1087;50.226;8.682;2022-12-11T11:53:15;2.60;99.90
2162;DHT22;1087;50.226;8.682;2022-12-11T11:55:54;2.60;99.90
2162;DHT22;1087;50.226;8.682;2022-12-11T11:58:29;2.60;99.90
2162;DHT22;1087;50.226;8.682;2022-12-11T12:00:56;2.60;99.90
2162;DHT22;1087;50.226;8.682;2022-12-11T12:03:23;2.60;99.90
2162;DHT22;1087;50.226;8.682;2022-12-11T12:05:57;2.70;99.90
2162;DHT22;1087;50.226;8.682;2022-12-11T12:16:28;2.60;99.90
2162;DHT22;1087;50.226;8.682;2022-12-11T12:21:42;2.60;99.90
2162;DHT22;1087;50.226;8.682;2022-12-11T12:24:34;2.70;99.90
2162;DHT22;1087;50.226;8.682;2022-12-11T12:27:22;2.70;99.90
2162;DHT22;1087;50.226;8.682;2022-12-11T12:32:24;2.70;99.90
2162;DHT22;1087;50.226;8.682;2022-12-11T12:35:26;2.70;99.90
2162;DHT22;1087;50.226;8.682;2022-12-11T12:41:02;2.70;99.90
2162;DHT22;1087;50.226;8.682;2022-12-11T12:43:59;2.70;99.90
2162;DHT22;1087;50.226;8.682;2022-12-11T12:47:02;2.60;99.90
2162;DHT22;1087;50.226;8.682;2022-12-11T12:49:37;2.60;99.90
2162;DHT22;1087;50.226;8.682;2022-12-11T12:52:06;2.60;99.90
2162;DHT22;1087;50.226;8.682;2022-12-11T12:54:36;2.60;99.90
2162;DHT22;1087;50.226;8.682;2022-12-11T12:57:03;2.60;99.90
2162;DHT22;1087;50.226;8.682;2022-12-11T12:59:29;2.60;99.90
2162;DHT22;1087;50.226;8.682;2022-12-11T13:01:57;2.70;99.90
2162;DHT22;1087;50.226;8.682;2022-12-11T13:04:41;2.70;99.90
2162;DHT22;1087;50.226;8.682;2022-12-11T13:07:18;2.60;99.90
2162;DHT22;1087;50.226;8.682;2022-12-11T13:09:59;2.70;99.90
2162;DHT22;1087;50.226;8.682;2022-12-11T13:12:43;2.70;99.90
2162;DHT22;1087;50.226;8.682;2022-12-11T13:15:26;2.70;99.90
2162;DHT22;1087;50.226;8.682;2022-12-11T13:17:53;2.70;99.90
2162;DHT22;1087;50.226;8.682;2022-12-11T13:20:21;2.70;99.90
2162;DHT22;1087;50.226;8.682;2022-12-11T13:27:48;2.70;99.90
2162;DHT22;1087;50.226;8.682;2022-12-11T13:32:41;2.70;99.90
2162;DHT22;1087;50.226;8.682;2022-12-11T13:35:14;2.60;99.90
2162;DHT22;1087;50.226;8.682;2022-12-11T13:37:43;2.50;99.90
2162;DHT22;1087;50.226;8.682;2022-12-11T13:40:21;2.50;99.90
2162;DHT22;1087;50.226;8.682;2022-12-11T13:42:50;2.40;99.90
2162;DHT22;1087;50.226;8.682;2022-12-11T13:45:42;2.40;99.90
2162;DHT22;1087;50.226;8.682;2022-12-11T13:48:21;2.30;99.90
2162;DHT22;1087;50.226;8.682;2022-12-11T13:50:49;2.40;99.90
2162;DHT22;1087;50.226;8.682;2022-12-11T13:53:17;2.10;99.90
2162;DHT22;1087;50.226;8.682;2022-12-11T13:55:43;2.30;99.90
2162;DHT22;1087;50.226;8.682;2022-12-11T13:58:17;2.40;99.90
2162;DHT22;1087;50.226;8.682;2022-12-11T14:00:53;2.50;99.90
2162;DHT22;1087;50.226;8.682;2022-12-11T14:03:22;2.50;99.90
2162;DHT22;1087;50.226;8.682;2022-12-11T14:05:48;2.60;99.90
2162;DHT22;1087;50.226;8.682;2022-12-11T14:08:21;2.60;99.90
2162;DHT22;1087;50.226;8.682;2022-12-11T14:10:51;2.70;99.90
2162;DHT22;1087;50.226;8.682;2022-12-11T14:13:22;2.70;99.90
2162;DHT22;1087;50.226;8.682;2022-12-11T14:15:49;2.70;99.90
2162;DHT22;1087;50.226;8.682;2022-12-11T14:18:22;2.70;99.90
2162;DHT22;1087;50.226;8.682;2022-12-11T14:21:00;2.80;99.90
2162;DHT22;1087;50.226;8.682;2022-12-11T14:23:28;2.60;99.90
2162;DHT22;1087;50.226;8.682;2022-12-11T14:25:59;2.50;99.90
2162;DHT22;1087;50.226;8.682;2022-12-11T14:28:27;2.60;99.90
2162;DHT22;1087;50.226;8.682;2022-12-11T14:30:56;2.70;99.90
2162;DHT22;1087;50.226;8.682;2022-12-11T14:33:28;2.60;99.90
2162;DHT22;1087;50.226;8.682;2022-12-11T14:35:55;2.60;99.90
2162;DHT22;1087;50.226;8.682;2022-12-11T14:38:25;2.60;99.90
2162;DHT22;1087;50.226;8.682;2022-12-11T14:40:58;2.60;99.90
2162;DHT22;1087;50.226;8.682;2022-12-11T14:43:30;2.50;99.90
2162;DHT22;1087;50.226;8.682;2022-12-11T14:46:04;2.60;99.90
2162;DHT22;1087;50.226;8.682;2022-12-11T14:48:35;2.60;99.90
2162;DHT22;1087;50.226;8.682;2022-12-11T14:51:04;2.60;99.90
2162;DHT22;1087;50.226;8.682;2022-12-11T14:53:37;2.50;99.90
2162;DHT22;1087;50.226;8.682;2022-12-11T14:56:06;2.60;99.90
2162;DHT22;1087;50.226;8.682;2022-12-11T14:58:39;2.50;99.90
2162;DHT22;1087;50.226;8.682;2022-12-11T15:03:47;2.60;99.90
2162;DHT22;1087;50.226;8.682;2022-12-11T15:06:44;2.60;99.90
2162;DHT22;1087;50.226;8.682;2022-12-11T15:09:28;2.50;99.90
2162;DHT22;1087;50.226;8.682;2022-12-11T15:11:57;2.50;99.90
2162;DHT22;1087;50.226;8.682;2022-12-11T15:14:24;2.50;99.90
2162;DHT22;1087;50.226;8.682;2022-12-11T15:16:51;2.50;99.90
2162;DHT22;1087;50.226;8.682;2022-12-11T15:19:28;2.50;99.90
2162;DHT22;1087;50.226;8.682;2022-12-11T15:22:00;2.60;99.90
2162;DHT22;1087;50.226;8.682;2022-12-11T15:24:32;2.60;99.90
2162;DHT22;1087;50.226;8.682;2022-12-11T15:26:59;2.70;99.90
2162;DHT22;1087;50.226;8.682;2022-12-11T15:32:16;2.70;99.90
2162;DHT22;1087;50.226;8.682;2022-12-11T15:37:20;2.80;99.90
2162;DHT22;1087;50.226;8.682;2022-12-11T15:39:46;2.70;99.90
2162;DHT22;1087;50.226;8.682;2022-12-11T15:42:20;2.70;99.90
2162;DHT22;1087;50.226;8.682;2022-12-11T15:44:47;2.70;99.90
2162;DHT22;1087;50.226;8.682;2022-12-11T15:47:14;2.80;99.90
2162;DHT22;1087;50.226;8.682;2022-12-11T15:49:40;2.80;99.90
2162;DHT22;1087;50.226;8.682;2022-12-11T15:52:06;2.90;99.90
2162;DHT22;1087;50.226;8.682;2022-12-11T15:54:31;2.80;99.90
2162;DHT22;1087;50.226;8.682;2022-12-11T15:56:58;2.80;99.90
2162;DHT22;1087;50.226;8.682;2022-12-11T15:59:26;2.80;99.90
2162;DHT22;1087;50.226;8.682;2022-12-11T16:01:51;2.80;99.90
2162;DHT22;1087;50.226;8.682;2022-12-11T16:04:17;2.80;99.90
2162;DHT22;1087;50.226;8.682;2022-12-11T16:06:42;2.70;99.90
2162;DHT22;1087;50.226;8.682;2022-12-11T16:09:10;2.70;99.90
2162;DHT22;1087;50.226;8.682;2022-12-11T16:11:36;2.70;99.90
2162;DHT22;1087;50.226;8.682;2022-12-11T16:14:01;2.70;99.90
2162;DHT22;1087;50.226;8.682;2022-12-11T16:16:29;2.60;99.90
2162;DHT22;1087;50.226;8.682;2022-12-11T16:18:55;2.60;99.90
2162;DHT22;1087;50.226;8.682;2022-12-11T16:21:20;2.60;99.90
2162;DHT22;1087;50.226;8.682;2022-12-11T16:23:46;2.60;99.90
2162;DHT22;1087;50.226;8.682;2022-12-11T16:26:11;2.70;99.90
2162;DHT22;1087;50.226;8.682;2022-12-11T16:28:38;2.70;99.90
2162;DHT22;1087;50.226;8.682;2022-12-11T16:31:09;2.60;99.90
2162;DHT22;1087;50.226;8.682;2022-12-11T16:33:34;2.60;99.90
2162;DHT22;1087;50.226;8.682;2022-12-11T16:36:00;2.60;99.90
2162;DHT22;1087;50.226;8.682;2022-12-11T16:38:25;2.60;99.90
2162;DHT22;1087;50.226;8.682;2022-12-11T16:41:00;2.70;99.90
2162;DHT22;1087;50.226;8.682;2022-12-11T16:43:26;2.70;99.90
2162;DHT22;1087;50.226;8.682;2022-12-11T16:45:54;2.70;99.90
2162;DHT22;1087;50.226;8.682;2022-12-11T16:48:20;2.80;99.90
2162;DHT22;1087;50.226;8.682;2022-12-11T16:50:45;2.90;99.90
2162;DHT22;1087;50.226;8.682;2022-12-11T16:53:11;2.90;99.90
2162;DHT22;1087;50.226;8.682;2022-12-11T16:55:39;2.80;99.90
2162;DHT22;1087;50.226;8.682;2022-12-11T16:58:05;2.80;99.90
2162;DHT22;1087;50.226;8.682;2022-12-11T17:00:31;2.70;99.90
2162;DHT22;1087;50.226;8.682;2022-12-11T17:02:57;2.60;99.90
2162;DHT22;1087;50.226;8.682;2022-12-11T17:05:22;2.50;99.90
2162;DHT22;1087;50.226;8.682;2022-12-11T17:07:49;2.60;99.90
2162;DHT22;1087;50.226;8.682;2022-12-11T17:10:14;2.70;99.90
2162;DHT22;1087;50.226;8.682;2022-12-11T17:12:40;2.70;99.90
2162;DHT22;1087;50.226;8.682;2022-12-11T17:15:06;2.80;99.90
2162;DHT22;1087;50.226;8.682;2022-12-11T17:17:31;2.70;99.90
2162;DHT22;1087;50.226;8.682;2022-12-11T17:19:57;2.60;99.90
2162;DHT22;1087;50.226;8.682;2022-12-11T17:22:23;2.60;99.90
2162;DHT22;1087;50.226;8.682;2022-12-11T17:24:48;2.70;99.90